首页
METAR-TAF:

METAR-TAF

机场 :

勒阿弗尔, 法国

纬度: 49-31N, 经度: 000-04E, 海拔: 100米

当前天气观测

该预报发布于32分钟前的20:00 UTC
风速20节,风向,在北转西北东北之间变化
温度 13°C
湿度 72%
气压 1011 hPa
能见度10公里或以上
多云层高于2700英尺
多云层高于3300英尺
阴天层高于4500英尺

METAR: LFOH 262000Z AUTO 35020KT 330V050 9999 BKN027 BKN033 OVC045 13/08 Q1011

时间: 22:32 (20:32 UTC)

预报

该预报发布于9小时和32分钟前的11:00 UTC
预报有效从26日的 12点(UTC)到 27日的 12点(UTC)
风速15节,风向北转西北,有时为25节阵风
能见度10公里或以上
多云层高于3000英尺
成为
从 26日的 15点(UTC)到 26日的 17点(UTC)
风速20节,风向北转西北,有时为35节阵风
短暂存在
从 27日的 09点(UTC)到 27日的 12点(UTC)
能見度: 3000
阴天层高于1200英尺

TAF: LFOH 261100Z 2612/2712 34015G25KT 9999 BKN030 BECMG 2615/2617 34020G35KT TEMPO 2709/2712 3000 RA OVC012

超过4000个机场的气象观测和天气预报(METAR&TAF报告)。

可查询的气象台以黄色和红色小点在地图上表示。

将鼠标移到小点上方,可查看气象台名称。

然后点击查看天气观测和预报。

如需切换地图:点击带黑十字的绿色按钮放大地图;点击带横线的绿色按钮缩小地图;或者点击绿色箭头查看邻近地区的地图。


METAR-TAF: